Knottingley, United Kingdom
Current Conditions -  °F | °C
As of 8:20 AM on Sunday 21 Dec 2014 (Local Time) from EGNM Reporting Station
Drizzle Drizzle  
Wind Chill: 36°   Ceiling: 2200
Heat Index: 43°   Visibility: 6mi
Dew Point: 39°   Wind: 13mph
Humidity: 87%   Direction: 220°SW
Pressure: 30.12"   Gusts: NA
Location:  53.71°N, 1.26°W
Report Text: EGNM 210820Z 22011KT 180V260 9999 9000W -DZ SCT015 BKN022 06/04 Q1020
Loading
Personal Weather Stations






























Interactive Weather Map New forecast layout! Learn more

10-Day Weather Forecast

Advertisements
Track Severe Weather on mobile